Time;durP1;ratioP1;P1;durP2;ratioP2;P2;SDS_P1;SDS_P2;PMS_P1;PMS_P2;Temp;Humidity;BMP_temperature;BMP_pressure;BME280_temperature;BME280_humidity;BME280_pressure;Samples;Min_cycle;Max_cycle;Signal;HPM_P1;HPM_P2
2022/03/23 00:02:14;;;;;;;25.13;11.63;;;;;;;2.14;43.86;94038.88;5035953;28;20136;-90
2022/03/23 00:05:10;;;;;;;23.02;12.02;;;;;;;1.71;43.48;93982.34;5020767;28;20044;-89
2022/03/23 00:07:56;;;;;;;23.77;12.15;;;;;;;1.74;43.85;93978.59;5036104;28;20541;-90
2022/03/23 00:10:29;;;;;;;23.38;11.88;;;;;;;1.71;44.10;93974.59;5020101;28;20033;-88
2022/03/23 00:13:25;;;;;;;21.45;11.77;;;;;;;1.73;43.97;93972.63;5008617;28;20075;-88
2022/03/23 00:16:04;;;;;;;;;;;;;;;;;;;;;
2022/03/23 00:18:43;;;;;;;24.05;11.75;;;;;;;2.15;44.16;94030.13;5036276;28;20059;-88
2022/03/23 00:21:27;;;;;;;;;;;;;;;;;;;;;
2022/03/23 00:24:09;;;;;;;27.60;12.50;;;;;;;2.08;44.32;94031.91;5035648;28;20439;-89
2022/03/23 00:26:49;;;;;;;24.10;12.02;;;;;;;1.81;45.15;93993.09;5020763;28;20039;-90
2022/03/23 00:29:41;;;;;;;25.23;12.05;;;;;;;1.58;44.71;93966.84;5022014;28;20037;-88
2022/03/23 00:32:26;;;;;;;21.55;11.43;;;;;;;1.56;44.58;93968.81;5035742;28;20053;-88
2022/03/23 00:35:17;;;;;;;25.65;11.52;;;;;;;1.51;44.36;93966.00;5019586;28;20489;-88
2022/03/23 00:38:21;;;;;;;25.70;11.82;;;;;;;1.82;44.13;94012.78;5020398;28;20052;-88
2022/03/23 00:41:10;;;;;;;23.17;10.77;;;;;;;1.73;44.34;94001.03;5017304;28;20037;-88
2022/03/23 00:44:32;;;;;;;;;;;;;;;;;;;;;
2022/03/23 00:47:16;;;;;;;21.10;10.77;;;;;;;1.50;44.04;93957.47;5033805;28;20406;-89
2022/03/23 00:50:06;;;;;;;22.48;12.10;;;;;;;1.61;44.39;93979.34;5046970;28;20033;-89
2022/03/23 00:52:52;;;;;;;22.17;10.88;;;;;;;1.62;44.67;93973.19;5035365;28;20090;-89
2022/03/23 00:55:51;;;;;;;25.52;11.38;;;;;;;1.97;44.90;94027.31;5035547;28;20045;-88
2022/03/23 00:58:33;;;;;;;26.75;11.57;;;;;;;1.52;44.42;93958.06;5033611;28;20178;-88
2022/03/23 01:01:06;;;;;;;23.80;11.85;;;;;;;1.75;44.63;93991.28;5052855;28;20057;-88
2022/03/23 01:03:57;;;;;;;23.80;10.27;;;;;;;1.51;45.06;93960.84;5020080;28;20041;-89
2022/03/23 01:06:52;;;;;;;20.00;10.88;;;;;;;1.47;45.56;93957.88;5037713;28;20041;-88
2022/03/23 01:09:35;;;;;;;19.38;10.02;;;;;;;1.45;45.41;93958.06;5023311;28;20041;-88
2022/03/23 01:12:24;;;;;;;22.67;10.98;;;;;;;1.44;45.76;93956.47;5007098;28;20045;-88
2022/03/23 01:15:01;;;;;;;23.48;11.35;;;;;;;1.72;45.98;93994.28;5004369;28;20069;-89
2022/03/23 01:18:26;;;;;;;22.15;10.93;;;;;;;1.69;45.98;93984.34;5036909;28;20039;-88
2022/03/23 01:24:09;;;;;;;19.27;9.80;;;;;;;1.44;45.14;93942.75;5056005;28;20029;-89
2022/03/23 01:26:47;;;;;;;20.75;9.82;;;;;;;1.73;44.64;93962.28;5039244;28;20106;-90
2022/03/23 01:29:29;;;;;;;22.90;11.10;;;;;;;1.82;43.76;93947.41;5019909;28;20041;-89
2022/03/23 01:32:22;;;;;;;;;;;;;;;;;;;;;
2022/03/23 01:35:05;;;;;;;21.80;10.27;;;;;;;2.10;44.24;93978.25;5037209;28;20041;-89
2022/03/23 01:37:50;;;;;;;20.70;10.52;;;;;;;1.72;45.41;93929.72;5037066;28;20036;-88
2022/03/23 01:40:46;;;;;;;22.63;10.88;;;;;;;2.00;45.96;93988.16;5036622;28;20044;-89
2022/03/23 01:43:39;;;;;;;;;;;;;;;;;;;;;
2022/03/23 01:46:23;;;;;;;;;;;;;;;;;;;;;
2022/03/23 01:48:51;;;;;;;22.05;10.98;;;;;;;1.71;45.95;93971.22;5038805;28;20047;-89
2022/03/23 01:51:22;;;;;;;20.02;10.43;;;;;;;1.74;45.34;93976.81;5039643;28;20040;-89
2022/03/23 01:54:11;;;;;;;18.50;10.43;;;;;;;1.64;45.01;93958.28;5004795;28;20049;-89
2022/03/23 01:57:16;;;;;;;22.95;10.70;;;;;;;1.66;45.15;93961.47;5020844;28;20037;-89
2022/03/23 02:00:01;;;;;;;25.45;10.20;;;;;;;1.43;44.58;93921.31;4990771;28;20065;-89
2022/03/23 02:02:46;;;;;;;;;;;;;;;;;;;;;
2022/03/23 02:05:30;;;;;;;22.45;11.10;;;;;;;1.44;44.75;93924.69;5056020;28;20033;-89
2022/03/23 02:08:20;;;;;;;19.65;10.27;;;;;;;1.41;44.86;93920.72;5022663;28;20063;-88
2022/03/23 02:11:09;;;;;;;;;;;;;;;;;;;;;
2022/03/23 02:13:54;;;;;;;25.33;10.93;;;;;;;1.33;44.03;93923.50;5021632;28;20030;-88
2022/03/23 02:16:30;;;;;;;22.92;9.90;;;;;;;1.29;44.74;93916.34;5018366;28;20045;-89
2022/03/23 02:19:22;;;;;;;22.17;9.77;;;;;;;1.59;44.13;93964.03;5020850;28;20033;-89
2022/03/23 02:22:02;;;;;;;21.52;10.45;;;;;;;1.57;44.83;93965.22;5022466;28;20553;-89
2022/03/23 02:24:36;;;;;;;20.60;10.25;;;;;;;1.71;44.65;93990.09;5021877;28;20056;-89
2022/03/23 02:27:23;;;;;;;22.02;10.55;;;;;;;1.23;44.47;93918.69;5028073;28;20049;-89
2022/03/23 02:30:17;;;;;;;23.10;10.30;;;;;;;1.64;44.25;93982.34;5040099;28;20436;-88
2022/03/23 02:33:18;;;;;;;18.77;9.38;;;;;;;1.19;44.55;93917.50;5023966;28;20040;-88
2022/03/23 02:36:03;;;;;;;;;;;;;;;;;;;;;
2022/03/23 02:38:37;;;;;;;20.25;10.15;;;;;;;1.19;44.85;93911.53;5017649;28;20042;-88
2022/03/23 02:41:13;;;;;;;20.17;10.00;;;;;;;1.44;44.60;93953.91;5002811;28;20091;-88
2022/03/23 02:44:07;;;;;;;20.40;10.55;;;;;;;1.44;44.71;93955.66;5018173;28;20041;-89
2022/03/23 02:47:11;;;;;;;20.35;10.15;;;;;;;1.55;44.67;93967.22;5019289;28;20052;-88
2022/03/23 02:49:49;;;;;;;20.38;11.02;;;;;;;1.18;44.69;93909.94;5017552;28;20037;-88
2022/03/23 03:02:43;;;;;;;25.27;10.30;;;;;;;1.58;44.18;93972.00;5034984;28;20389;-88
2022/03/23 03:05:29;;;;;;;20.38;9.10;;;;;;;1.13;44.55;93902.78;5025441;28;20041;-88
2022/03/23 03:11:13;;;;;;;20.45;10.68;;;;;;;1.12;44.64;93902.97;5017505;28;20136;-89
2022/03/23 03:13:48;;;;;;;21.20;10.13;;;;;;;1.17;44.77;93913.50;4986718;28;20038;-88
2022/03/23 03:16:32;;;;;;;21.30;10.20;;;;;;;1.28;44.51;93930.22;5004970;28;20041;-88
2022/03/23 03:19:25;;;;;;;22.52;11.07;;;;;;;1.41;44.60;93956.84;5017493;28;20029;-89
2022/03/23 03:22:45;;;;;;;20.65;10.98;;;;;;;1.10;44.48;93903.16;5033772;28;20048;-88
2022/03/23 03:25:20;;;;;;;23.30;11.93;;;;;;;1.16;44.54;93909.34;5003555;28;20129;-88
2022/03/23 03:28:11;;;;;;;23.27;10.80;;;;;;;1.18;44.80;93912.53;5034982;28;20051;-88
2022/03/23 03:30:50;;;;;;;22.92;10.93;;;;;;;1.22;45.29;93921.47;5002483;28;20045;-88
2022/03/23 03:33:32;;;;;;;21.92;10.75;;;;;;;1.41;45.07;93951.69;4998621;28;20038;-88
2022/03/23 03:36:08;;;;;;;25.42;11.32;;;;;;;1.11;45.00;93903.97;4999003;28;20034;-89
2022/03/23 03:39:05;;;;;;;;;;;;;;;;;;;;;
2022/03/23 03:44:35;;;;;;;25.77;11.70;;;;;;;1.17;44.80;93908.34;5027242;28;20556;-90
2022/03/23 03:47:24;;;;;;;20.05;11.23;;;;;;;1.12;45.18;93902.97;5020320;28;20081;-89
2022/03/23 03:49:54;;;;;;;21.92;10.77;;;;;;;1.24;45.00;93922.06;4998911;28;20053;-90
2022/03/23 03:52:45;;;;;;;25.15;11.00;;;;;;;1.26;45.17;93932.97;4998356;28;20057;-89
2022/03/23 03:55:30;;;;;;;27.83;11.63;;;;;;;1.04;44.83;93897.00;5000464;28;20202;-89
2022/03/23 03:58:17;;;;;;;21.02;10.65;;;;;;;1.16;44.85;93917.88;4988954;28;20029;-89
2022/03/23 04:01:09;;;;;;;22.17;11.02;;;;;;;1.24;44.97;93928.03;5034324;28;20041;-89
2022/03/23 04:03:48;;;;;;;21.45;11.73;;;;;;;1.11;44.81;93903.97;4992338;28;20054;-89
2022/03/23 04:06:25;;;;;;;24.02;11.13;;;;;;;1.10;45.11;93908.31;5002319;28;20046;-89
2022/03/23 04:09:00;;;;;;;22.83;11.07;;;;;;;1.27;45.41;93933.78;4996978;28;20073;-89
2022/03/23 04:11:55;;;;;;;26.80;11.25;;;;;;;1.34;45.34;93942.34;4981723;28;20395;-89
2022/03/23 04:14:49;;;;;;;;;;;;;;;;;;;;;
2022/03/23 04:17:24;;;;;;;23.50;10.90;;;;;;;1.01;45.78;93897.38;5005638;28;20042;-88
2022/03/23 04:20:34;;;;;;;20.55;11.20;;;;;;;1.01;45.67;93897.38;4994995;28;20623;-89
2022/03/23 04:23:05;;;;;;;21.63;11.00;;;;;;;1.06;45.64;93906.31;4996914;28;20505;-89
2022/03/23 04:35:04;;;;;;;23.10;10.77;;;;;;;1.25;45.42;93939.13;5010085;28;20447;-88
2022/03/23 04:37:31;;;;;;;21.95;10.85;;;;;;;0.98;44.75;93895.19;4994970;28;20069;-88
2022/03/23 04:39:57;;;;;;;24.25;11.52;;;;;;;1.27;45.53;93947.47;5000403;28;20489;-88
2022/03/23 04:42:23;;;;;;;23.83;11.13;;;;;;;1.18;45.86;93935.75;5027623;28;20037;-86
2022/03/23 04:44:49;;;;;;;24.88;12.15;;;;;;;1.19;45.27;93947.63;5014283;28;20033;-87
2022/03/23 04:47:14;;;;;;;21.23;10.95;;;;;;;0.88;45.74;93896.50;4997807;28;20475;-87
2022/03/23 04:49:43;;;;;;;20.13;10.93;;;;;;;1.08;45.22;93925.78;4979206;28;20509;-87
2022/03/23 04:52:13;;;;;;;22.33;11.38;;;;;;;0.99;45.41;93912.25;4977080;28;20715;-85
2022/03/23 04:54:39;;;;;;;21.33;10.80;;;;;;;1.21;45.65;93940.50;5027479;28;20041;-86
2022/03/23 04:57:05;;;;;;;22.65;11.30;;;;;;;1.21;45.34;93949.03;5008428;28;20087;-88
2022/03/23 04:59:35;;;;;;;25.05;11.10;;;;;;;0.96;45.39;93901.50;4995961;28;20155;-87
2022/03/23 05:02:00;;;;;;;22.65;11.32;;;;;;;1.22;45.49;93942.09;5012173;28;20060;-86
2022/03/23 05:04:29;;;;;;;23.60;11.18;;;;;;;1.40;45.48;93965.59;5005691;28;20080;-86
2022/03/23 05:07:00;;;;;;;26.15;12.00;;;;;;;0.98;45.93;93905.50;5019448;28;20045;-86
2022/03/23 05:09:30;;;;;;;23.48;10.88;;;;;;;0.97;45.33;93909.06;5018466;28;20048;-86
2022/03/23 05:11:59;;;;;;;17.90;9.70;;;;;;;1.35;45.11;93960.22;5034612;28;20033;-86
2022/03/23 05:14:24;;;;;;;21.85;10.85;;;;;;;0.96;44.77;93910.03;5008770;28;20041;-88
2022/03/23 05:16:52;;;;;;;21.65;10.23;;;;;;;0.96;45.23;93910.03;5029845;28;20033;-87
2022/03/23 05:19:21;;;;;;;22.58;9.85;;;;;;;1.10;45.23;93941.03;5049174;28;20037;-87
2022/03/23 05:21:50;;;;;;;21.15;10.55;;;;;;;1.15;44.99;93947.25;5050285;28;20043;-90
2022/03/23 05:24:18;;;;;;;21.02;10.50;;;;;;;0.93;44.69;93902.69;4990467;28;20123;-86
2022/03/23 05:26:45;;;;;;;23.27;10.70;;;;;;;0.89;44.28;93892.97;5032974;28;20037;-87
2022/03/23 05:29:14;;;;;;;22.35;10.20;;;;;;;0.93;44.05;93896.75;5030335;28;20118;-90
2022/03/23 05:31:39;;;;;;;22.40;10.68;;;;;;;1.10;44.50;93918.63;5032185;28;20502;-86
2022/03/23 05:34:08;;;;;;;21.77;9.38;;;;;;;1.19;43.95;93930.41;5033145;28;20041;-87
2022/03/23 05:36:38;;;;;;;21.58;9.88;;;;;;;1.19;44.07;93924.41;5015803;28;20044;-87
2022/03/23 05:39:06;;;;;;;18.55;10.05;;;;;;;1.39;43.82;93945.91;4996742;28;20110;-88
2022/03/23 05:41:32;;;;;;;16.02;8.77;;;;;;;1.55;44.05;93956.88;5028947;28;20552;-86
2022/03/23 05:43:58;;;;;;;23.80;9.48;;;;;;;1.56;44.14;93943.78;5015100;28;20033;-87
2022/03/23 05:46:26;;;;;;;18.42;9.15;;;;;;;1.67;43.84;93942.44;5029620;28;20038;-88
2022/03/23 05:48:54;;;;;;;22.35;9.30;;;;;;;1.71;43.65;93930.72;5050529;28;20041;-87
2022/03/23 05:51:25;;;;;;;18.27;9.15;;;;;;;1.91;43.75;93927.38;5016059;28;20039;-86
2022/03/23 05:53:54;;;;;;;21.85;9.77;;;;;;;2.71;41.99;93920.38;5054113;28;20033;-87
2022/03/23 05:56:19;;;;;;;23.27;9.93;;;;;;;5.30;37.53;93942.94;5048122;28;20033;-88
2022/03/23 05:58:45;;;;;;;24.73;10.73;;;;;;;7.40;33.69;93934.94;5019257;28;20051;-87
2022/03/23 06:01:11;;;;;;;22.35;10.52;;;;;;;9.02;30.79;93924.06;5024453;28;20048;-87
2022/03/23 06:03:36;;;;;;;20.98;10.50;;;;;;;10.49;28.15;93920.69;5004743;28;20037;-86
2022/03/23 06:06:03;;;;;;;19.67;10.95;;;;;;;11.54;26.96;93906.88;5013599;28;20083;-87
2022/03/23 06:08:29;;;;;;;19.23;9.65;;;;;;;12.80;25.20;93946.75;5046191;28;20498;-88
2022/03/23 06:10:57;;;;;;;20.85;10.13;;;;;;;13.82;23.79;93950.22;5035225;28;20108;-88
2022/03/23 06:13:25;;;;;;;19.95;10.43;;;;;;;14.60;22.36;93896.03;5019316;28;20065;-88
2022/03/23 06:15:53;;;;;;;18.45;10.25;;;;;;;15.73;21.67;93938.69;5012820;28;20548;-87
2022/03/23 06:18:21;;;;;;;19.90;10.23;;;;;;;16.33;21.05;93932.91;5033729;28;20057;-87
2022/03/23 06:20:46;;;;;;;19.73;10.13;;;;;;;17.28;19.99;93944.09;5036189;28;20438;-86
2022/03/23 06:23:13;;;;;;;21.70;10.40;;;;;;;17.92;19.14;93924.13;5020106;28;20136;-87
2022/03/23 06:25:41;;;;;;;21.27;11.23;;;;;;;18.60;18.70;93938.28;5018775;28;20057;-88
2022/03/23 06:28:12;;;;;;;24.85;10.95;;;;;;;18.88;18.70;93913.25;5005265;28;20132;-90
2022/03/23 06:30:38;;;;;;;22.00;10.88;;;;;;;19.52;18.15;93917.47;5028380;28;20486;-88
2022/03/23 06:33:03;;;;;;;18.05;11.20;;;;;;;20.02;17.70;93921.69;5030025;28;20041;-87
2022/03/23 06:35:30;;;;;;;19.90;11.10;;;;;;;20.63;17.17;93930.53;5011990;28;20429;-88
2022/03/23 06:37:56;;;;;;;20.23;11.45;;;;;;;21.56;15.85;93937.09;4998864;28;20406;-86
2022/03/23 06:40:22;;;;;;;16.67;10.68;;;;;;;22.00;15.37;93936.91;5034674;28;20033;-86
2022/03/23 06:42:48;;;;;;;19.05;10.52;;;;;;;22.82;14.33;93939.19;5054120;28;20044;-86
2022/03/23 06:45:13;;;;;;;19.38;11.40;;;;;;;22.91;14.42;93939.88;5003030;28;20033;-86
2022/03/23 06:47:39;;;;;;;20.85;11.68;;;;;;;22.76;15.17;93943.16;5019636;28;20052;-86
2022/03/23 06:50:07;;;;;;;18.20;12.15;;;;;;;22.60;15.57;93940.31;5019309;28;20037;-87
2022/03/23 06:52:33;;;;;;;19.70;12.43;;;;;;;22.76;15.57;93930.59;5053983;28;20048;-86
2022/03/23 06:54:59;;;;;;;21.35;11.98;;;;;;;23.48;14.70;93933.84;5036234;28;20036;-86
2022/03/23 06:57:25;;;;;;;19.65;11.85;;;;;;;24.07;14.44;93921.16;5036189;28;20452;-86
2022/03/23 06:59:51;;;;;;;19.92;12.50;;;;;;;24.94;13.81;93935.94;5036135;28;20116;-86
2022/03/23 07:02:16;;;;;;;21.75;12.90;;;;;;;25.32;13.22;93919.34;5003818;28;1148304;-86
2022/03/23 07:04:42;;;;;;;21.38;12.32;;;;;;;25.61;13.36;93908.56;5034158;28;20041;-86
2022/03/23 07:07:07;;;;;;;20.95;12.32;;;;;;;26.50;13.26;93933.97;5020784;28;20113;-86
2022/03/23 07:09:34;;;;;;;19.60;11.90;;;;;;;26.98;12.23;93934.63;5037450;28;20123;-87
2022/03/23 07:12:05;;;;;;;19.83;11.50;;;;;;;27.72;11.61;93939.81;5021284;28;20029;-86
2022/03/23 07:14:33;;;;;;;15.17;10.40;;;;;;;28.28;10.28;93927.63;5037421;28;20064;-86
2022/03/23 07:16:58;;;;;;;15.23;10.00;;;;;;;28.63;9.37;93943.50;5037549;28;20091;-86
2022/03/23 07:19:24;;;;;;;21.10;12.63;;;;;;;27.86;10.98;93950.03;5019784;28;20033;-86
2022/03/23 07:21:50;;;;;;;21.55;13.18;;;;;;;26.69;11.71;93909.88;5036722;28;20086;-86
2022/03/23 07:24:16;;;;;;;26.73;12.85;;;;;;;26.70;11.62;93930.22;5037042;28;20437;-86
2022/03/23 07:26:42;;;;;;;21.13;11.95;;;;;;;25.48;12.73;93940.81;5036483;28;20033;-86
2022/03/23 07:29:08;;;;;;;22.65;12.18;;;;;;;22.56;14.23;93932.19;5054796;28;20037;-86
2022/03/23 07:31:34;;;;;;;20.83;12.23;;;;;;;20.64;16.09;93936.63;5019988;28;20511;-87
2022/03/23 07:34:00;;;;;;;21.60;12.68;;;;;;;18.99;17.78;93944.84;5017267;28;20136;-87
2022/03/23 07:36:26;;;;;;;29.55;13.45;;;;;;;17.41;20.42;93936.50;5000577;28;20441;-86
2022/03/23 07:38:52;;;;;;;29.33;13.85;;;;;;;16.65;21.85;93934.81;5034491;28;20037;-86
2022/03/23 07:41:18;;;;;;;25.85;13.60;;;;;;;15.71;22.75;93946.13;5017467;28;20076;-86
2022/03/23 07:43:44;;;;;;;21.40;12.70;;;;;;;15.41;23.84;93952.50;4998667;28;20088;-86
2022/03/23 07:46:09;;;;;;;24.65;12.82;;;;;;;14.32;23.74;93951.78;5034484;28;20471;-86
2022/03/23 07:48:35;;;;;;;27.20;13.10;;;;;;;13.38;24.25;93956.16;5016287;28;20077;-86
2022/03/23 07:51:01;;;;;;;25.83;13.27;;;;;;;13.05;25.01;93943.28;5033587;28;20458;-86
2022/03/23 07:53:28;;;;;;;19.98;12.73;;;;;;;12.02;24.57;93947.75;5000266;28;20396;-86
2022/03/23 07:55:54;;;;;;;24.15;12.43;;;;;;;11.98;25.69;93944.03;5016278;28;20487;-86
2022/03/23 07:58:21;;;;;;;23.30;12.50;;;;;;;12.55;24.94;93963.28;5016235;28;20042;-86
2022/03/23 08:00:47;;;;;;;22.48;12.30;;;;;;;13.24;25.02;93966.41;5034009;28;20033;-86
2022/03/23 08:03:13;;;;;;;22.60;13.30;;;;;;;13.08;24.91;93969.06;5047758;28;20076;-85
2022/03/23 08:05:40;;;;;;;22.00;12.60;;;;;;;13.48;24.45;93967.41;5073556;28;20137;-87
2022/03/23 08:08:09;;;;;;;21.92;12.98;;;;;;;13.50;23.74;93965.31;5055623;28;20040;-86
2022/03/23 08:10:36;;;;;;;24.45;12.90;;;;;;;13.50;24.80;93948.75;5050997;28;20028;-87
2022/03/23 08:13:03;;;;;;;20.85;12.30;;;;;;;13.24;25.74;93966.41;5035178;28;20045;-86
2022/03/23 08:15:29;;;;;;;25.25;13.35;;;;;;;13.49;25.47;93947.97;5018376;28;20037;-87
2022/03/23 08:17:56;;;;;;;22.92;11.95;;;;;;;13.40;24.82;93962.72;5002734;28;20414;-87
2022/03/23 08:20:35;;;;;;;22.65;12.40;;;;;;;12.35;25.41;93937.03;5053517;28;20107;-86
2022/03/23 08:23:08;;;;;;;24.23;11.65;;;;;;;12.80;25.35;93972.25;5021240;28;20041;-86
2022/03/23 08:25:38;;;;;;;19.58;12.13;;;;;;;12.90;26.10;93964.34;5035752;28;20037;-86
2022/03/23 08:28:05;;;;;;;20.20;11.50;;;;;;;12.78;24.43;93950.69;5035882;28;20052;-86
2022/03/23 08:30:32;;;;;;;23.85;12.48;;;;;;;12.55;25.32;93958.03;5036006;28;20041;-86
2022/03/23 08:32:57;;;;;;;18.92;11.52;;;;;;;12.60;25.15;93978.28;5019586;28;20053;-86
2022/03/23 08:35:26;;;;;;;24.90;12.57;;;;;;;12.13;25.94;93976.63;5035612;28;20037;-86
2022/03/23 08:37:52;;;;;;;21.80;12.43;;;;;;;12.55;25.61;93965.91;5019138;28;20032;-87
2022/03/23 08:40:18;;;;;;;20.20;11.40;;;;;;;12.86;25.61;93969.34;5035749;28;20040;-86
2022/03/23 08:42:44;;;;;;;22.33;12.63;;;;;;;13.40;24.98;93960.09;5036568;28;20048;-86
2022/03/23 08:45:10;;;;;;;25.77;12.20;;;;;;;13.49;24.56;93944.56;5019309;28;20090;-86
2022/03/23 08:47:38;;;;;;;21.90;11.70;;;;;;;13.22;24.66;93960.63;5053654;28;20449;-86
2022/03/23 08:50:07;;;;;;;21.58;11.15;;;;;;;12.42;26.78;93961.19;5053183;28;20041;-87
2022/03/23 08:52:34;;;;;;;25.48;11.60;;;;;;;12.59;26.65;93948.59;5019030;28;20528;-87
2022/03/23 08:55:01;;;;;;;20.73;11.90;;;;;;;12.63;26.64;93961.97;5052517;28;20037;-87
2022/03/23 08:57:27;;;;;;;23.27;13.15;;;;;;;11.70;28.58;93968.84;5035143;28;20064;-86
2022/03/23 08:59:52;;;;;;;29.33;13.02;;;;;;;11.76;27.62;93956.53;5019014;28;20067;-85
2022/03/23 09:02:18;;;;;;;23.02;12.77;;;;;;;11.93;29.42;93964.22;5018891;28;20076;-86
2022/03/23 09:04:43;;;;;;;23.10;12.65;;;;;;;11.75;29.04;93960.97;5000310;28;20048;-86
2022/03/23 09:07:09;;;;;;;25.23;13.10;;;;;;;11.60;29.86;93966.19;5033133;28;20091;-86
2022/03/23 09:09:34;;;;;;;23.77;13.90;;;;;;;11.93;28.97;93943.22;4966732;28;20041;-87
2022/03/23 09:12:01;;;;;;;20.48;12.15;;;;;;;12.36;27.27;93951.72;5015398;28;20068;-87
2022/03/23 09:14:26;;;;;;;28.60;12.68;;;;;;;13.03;27.27;93940.16;4998739;28;20041;-86
2022/03/23 09:16:52;;;;;;;23.35;12.98;;;;;;;13.21;26.06;93953.78;5015575;28;20037;-87
2022/03/23 09:19:20;;;;;;;19.75;10.90;;;;;;;12.98;25.83;93947.25;5015314;28;20064;-86
2022/03/23 09:21:50;;;;;;;20.38;11.90;;;;;;;12.70;27.73;93952.81;5015866;28;20048;-87
2022/03/23 09:24:19;;;;;;;22.77;12.27;;;;;;;12.74;27.85;93963.56;5015782;28;20033;-87
2022/03/23 09:26:45;;;;;;;26.05;12.80;;;;;;;12.21;28.99;93942.78;5016081;28;20109;-86
2022/03/23 09:29:12;;;;;;;20.83;12.02;;;;;;;12.02;26.97;93954.81;5015377;28;20069;-86
2022/03/23 09:31:38;;;;;;;20.95;11.23;;;;;;;12.78;26.71;93948.84;4999180;28;20041;-86
2022/03/23 09:34:05;;;;;;;21.88;12.02;;;;;;;13.24;26.52;93937.47;5015497;28;20033;-87
2022/03/23 09:39:18;;;;;;;19.88;10.73;;;;;;;13.34;26.29;93953.25;5015348;28;20042;-86
2022/03/23 09:41:48;;;;;;;24.38;11.15;;;;;;;13.52;25.22;93936.91;5015639;28;20041;-86
2022/03/23 09:44:14;;;;;;;22.17;12.20;;;;;;;12.85;27.28;93951.22;4995388;28;20042;-86
2022/03/23 09:46:40;;;;;;;20.25;10.77;;;;;;;12.12;26.91;93960.09;5019123;28;20075;-86
2022/03/23 09:49:06;;;;;;;23.13;11.75;;;;;;;12.23;26.02;93958.28;5019205;28;20516;-86
2022/03/23 09:51:34;;;;;;;21.23;11.15;;;;;;;12.35;25.22;93952.78;5035599;28;20045;-86
2022/03/23 09:54:01;;;;;;;21.17;10.27;;;;;;;12.41;25.13;93944.66;5002368;28;20115;-87
2022/03/23 09:56:26;;;;;;;18.90;11.38;;;;;;;12.79;25.51;93954.88;5008148;28;20033;-86
2022/03/23 09:58:52;;;;;;;19.45;11.70;;;;;;;12.39;25.56;93954.63;4999149;28;20375;-85
2022/03/23 10:01:30;;;;;;;20.13;10.93;;;;;;;12.47;24.06;93958.56;5016708;28;20410;-86
2022/03/23 10:04:06;;;;;;;19.58;10.65;;;;;;;13.02;25.10;93954.34;4983053;28;20121;-86
2022/03/23 10:06:53;;;;;;;25.15;10.27;;;;;;;13.17;25.68;93942.22;4983105;28;20088;-85
2022/03/23 10:09:44;;;;;;;17.52;10.20;;;;;;;13.45;24.18;93946.16;4999461;28;20143;-86
2022/03/23 10:12:22;;;;;;;19.80;9.55;;;;;;;13.45;23.13;93946.16;4999294;28;20045;-86
2022/03/23 10:15:25;;;;;;;20.10;9.98;;;;;;;13.56;23.88;93944.28;4999120;28;20076;-86
2022/03/23 10:17:58;;;;;;;16.95;9.85;;;;;;;13.90;24.65;93942.53;5012926;28;20108;-86
2022/03/23 10:20:24;;;;;;;21.15;10.93;;;;;;;14.23;24.65;93940.28;5036054;28;20083;-86
2022/03/23 10:22:53;;;;;;;17.10;9.57;;;;;;;14.30;24.32;93935.47;5018323;28;20046;-86
2022/03/23 10:25:21;;;;;;;18.80;8.50;;;;;;;13.78;20.17;93922.84;5018104;28;20045;-86
2022/03/23 10:27:47;;;;;;;16.88;9.77;;;;;;;14.33;22.75;93948.09;5001978;28;20038;-86
2022/03/23 10:30:14;;;;;;;15.88;8.77;;;;;;;14.42;19.93;93942.25;5035748;28;20044;-86
2022/03/23 10:32:43;;;;;;;20.13;8.88;;;;;;;14.20;22.30;93934.75;5018362;28;20061;-87
2022/03/23 10:35:14;;;;;;;17.20;8.32;;;;;;;14.04;21.71;93921.66;4985948;28;20045;-86
2022/03/23 10:37:41;;;;;;;19.40;8.88;;;;;;;14.56;22.88;93917.66;5001425;28;20602;-86
2022/03/23 10:40:11;;;;;;;18.15;8.45;;;;;;;14.67;20.50;93928.91;5001888;28;20021;-85
2022/03/23 10:42:40;;;;;;;15.40;9.63;;;;;;;14.66;21.88;93922.06;5017933;28;20045;-85
2022/03/23 10:45:10;;;;;;;20.58;9.50;;;;;;;14.03;23.02;93893.00;5017409;28;20042;-87
2022/03/23 10:47:38;;;;;;;18.30;9.32;;;;;;;13.95;24.28;93934.59;5000991;28;20037;-86
2022/03/23 10:50:23;;;;;;;16.45;8.98;;;;;;;14.10;22.56;93915.31;5017394;28;20029;-86
2022/03/23 10:52:55;;;;;;;16.45;9.07;;;;;;;14.13;22.53;93920.03;5000503;28;20474;-87
2022/03/23 10:55:21;;;;;;;;;;;;;;;13.78;22.13;93925.47;5017926;28;20558;-88
2022/03/23 10:57:49;;;;;;;14.93;7.60;;;;;;;13.78;21.59;93931.56;5017337;28;19995;-86
2022/03/23 11:00:19;;;;;;;17.08;8.20;;;;;;;13.82;23.30;93908.09;5016903;28;20451;-87
2022/03/23 11:02:48;;;;;;;12.48;7.43;;;;;;;13.92;21.42;93931.75;5016650;28;20405;-86
2022/03/23 11:05:37;;;;;;;14.80;7.75;;;;;;;14.41;22.62;93923.03;5042166;28;20074;-86
2022/03/23 11:08:11;;;;;;;17.30;8.60;;;;;;;14.25;21.57;93927.63;5036206;28;20210;-87
2022/03/23 11:16:17;;;;;;;15.02;8.50;;;;;;;13.87;21.72;93906.25;5033467;28;20086;-87
2022/03/23 11:18:44;;;;;;;13.77;7.90;;;;;;;14.21;19.73;93910.78;5034506;28;20049;-89
2022/03/23 11:21:09;;;;;;;12.85;7.32;;;;;;;14.83;19.44;93915.59;5034551;28;20513;-88
2022/03/23 11:23:37;;;;;;;15.70;8.23;;;;;;;14.67;19.72;93899.13;5016843;28;20132;-87
2022/03/23 11:26:08;;;;;;;14.50;8.05;;;;;;;14.68;20.03;93901.50;5014406;28;20740;-87
2022/03/23 11:28:38;;;;;;;12.50;7.30;;;;;;;14.87;19.58;93906.09;5018114;28;20037;-87
2022/03/23 11:31:06;;;;;;;12.65;7.82;;;;;;;14.78;18.73;93888.22;5054637;28;20041;-86
2022/03/23 11:33:33;;;;;;;12.60;8.20;;;;;;;14.88;19.69;93876.00;5037005;28;20032;-87
2022/03/23 11:35:59;;;;;;;15.15;8.07;;;;;;;14.88;19.31;93890.00;5036948;28;20021;-87
2022/03/23 11:38:26;;;;;;;14.98;7.32;;;;;;;14.83;18.66;93881.34;5054957;28;20620;-87
2022/03/23 11:40:53;;;;;;;13.25;7.20;;;;;;;15.11;20.17;93874.47;5054580;28;20052;-87
2022/03/23 11:43:22;;;;;;;16.83;7.18;;;;;;;14.72;19.16;93889.31;5037151;28;20103;-86
2022/03/23 11:45:50;;;;;;;13.35;7.15;;;;;;;14.29;19.92;93875.16;5054140;28;20367;-87
2022/03/23 11:48:53;;;;;;;14.43;7.40;;;;;;;14.87;18.84;93882.34;5032295;28;20115;-86
2022/03/23 11:51:40;;;;;;;11.68;6.82;;;;;;;15.47;19.31;93879.34;5036342;28;20029;-87
2022/03/23 11:55:36;;;;;;;10.70;6.80;;;;;;;15.08;18.25;93865.25;5016895;28;20034;-87
2022/03/23 11:57:15;;;;;;;12.82;6.60;;;;;;;15.31;18.81;93863.69;5016676;28;20490;-87
2022/03/23 11:59:42;;;;;;;10.52;6.30;;;;;;;15.31;17.16;93868.97;5016392;28;20029;-87
2022/03/23 12:02:09;;;;;;;12.80;5.80;;;;;;;14.31;17.54;93855.38;5017512;28;20145;-88
2022/03/23 12:05:41;;;;;;;;;;;;;;;;;;;;;
2022/03/23 12:09:20;;;;;;;10.77;6.03;;;;;;;15.59;18.20;93814.53;5031921;28;20116;-89
2022/03/23 12:12:44;;;;;;;15.82;7.15;;;;;;;14.92;18.40;93796.06;4991168;28;20136;-87
2022/03/23 12:27:36;;;;;;;13.90;6.32;;;;;;;15.75;18.37;93830.19;4956353;28;20133;-88
2022/03/23 12:30:38;;;;;;;10.20;5.85;;;;;;;15.73;16.84;93795.38;4976699;28;20056;-88
2022/03/23 12:33:33;;;;;;;;;;;;;;;;;;;;;
2022/03/23 12:36:15;;;;;;;8.48;5.05;;;;;;;15.79;15.60;93773.91;5052566;28;20047;-88
2022/03/23 12:39:03;;;;;;;12.07;6.18;;;;;;;15.86;18.04;93788.59;5020783;28;20034;-89
2022/03/23 12:42:15;;;;;;;10.93;6.05;;;;;;;15.08;18.32;93749.22;5001913;28;20045;-88
2022/03/23 12:45:09;;;;;;;10.10;5.85;;;;;;;15.09;17.60;93802.78;5028916;28;20046;-88
2022/03/23 12:47:53;;;;;;;11.23;6.30;;;;;;;15.31;16.40;93766.09;5016977;28;20125;-89
2022/03/23 12:59:20;;;;;;;13.55;5.72;;;;;;;15.27;16.96;93785.41;5036459;28;20403;-88
2022/03/23 13:01:47;;;;;;;15.10;5.90;;;;;;;15.36;16.45;93781.06;5016089;28;20053;-88
2022/03/23 13:04:31;;;;;;;10.02;5.38;;;;;;;15.82;16.54;93783.09;5016346;28;20084;-87
2022/03/23 13:06:57;;;;;;;10.30;5.93;;;;;;;16.01;16.69;93769.88;5000417;28;20128;-88
2022/03/23 13:09:26;;;;;;;7.55;4.82;;;;;;;15.41;15.46;93773.06;5052015;28;20036;-89
2022/03/23 13:12:00;;;;;;;9.00;5.35;;;;;;;15.82;16.22;93768.03;5019835;28;20489;-88
2022/03/23 13:14:31;;;;;;;9.63;5.35;;;;;;;16.31;15.60;93768.59;5029958;28;20076;-88
2022/03/23 13:17:17;;;;;;;;;;;;;;;;;;;;;
2022/03/23 13:20:02;;;;;;;11.85;5.47;;;;;;;15.07;15.51;93705.47;5043071;28;20091;-88